Saint Bethlehem, Tennessee
Current Conditions -  °F | °C
As of 2:52 AM on Sunday 23 Nov 2014 (Local Time) from KCKV Reporting Station
Broken Clouds Broken Clouds  
Wind Chill: 54°   Ceiling: 2500
Heat Index: 54°   Visibility: 10mi
Dew Point: 41°   Wind: 7mph
Humidity: 62%   Direction: 160°SSE
Pressure: 29.95"   Gusts: NA
Location:  36.57°N, 87.3°W
Report Text: KCKV 230852Z AUTO 16006KT 10SM BKN025 12/05 A2995 RMK AO2 SLP140 T01220050 57019 $
Loading
Personal Weather Stations






























Interactive Weather Map New forecast layout! Learn more

10-Day Weather Forecast

Advertisements
Track Severe Weather on mobile